createdAt,value
2023-02-03T00:00:17.613Z,8.52
2023-02-03T00:02:50.961Z,8.52
2023-02-03T00:05:27.227Z,8.45
2023-02-03T00:07:59.907Z,8.33
2023-02-03T00:10:38.952Z,8.49
2023-02-03T00:13:11.875Z,8.40
2023-02-03T00:15:44.553Z,8.35
2023-02-03T00:18:17.248Z,8.46
2023-02-03T00:20:49.807Z,8.48
2023-02-03T00:23:22.394Z,8.46
2023-02-03T00:25:54.988Z,8.52
2023-02-03T00:28:31.805Z,8.41
2023-02-03T00:31:04.909Z,8.47
2023-02-03T00:33:39.043Z,8.38
2023-02-03T00:36:12.711Z,8.49
2023-02-03T00:38:45.304Z,8.39
2023-02-03T00:41:19.508Z,8.45
2023-02-03T00:43:52.051Z,8.51
2023-02-03T00:46:24.771Z,8.47
2023-02-03T00:48:57.338Z,8.48
2023-02-03T00:51:30.155Z,8.55
2023-02-03T00:54:02.781Z,8.46
2023-02-03T00:56:35.306Z,8.48
2023-02-03T00:59:08.056Z,8.55
2023-02-03T01:01:40.820Z,8.57
2023-02-03T01:04:13.405Z,8.62
2023-02-03T01:06:45.973Z,8.50
2023-02-03T01:09:18.566Z,8.45
2023-02-03T01:11:51.251Z,8.38
2023-02-03T01:14:23.882Z,8.34
2023-02-03T01:16:56.512Z,8.37
2023-02-03T01:19:29.151Z,8.51
2023-02-03T01:22:01.771Z,8.48
2023-02-03T01:24:34.337Z,8.41
2023-02-03T01:27:06.940Z,8.39
2023-02-03T01:29:39.534Z,8.43
2023-02-03T01:32:12.116Z,8.50
2023-02-03T01:34:44.614Z,8.50
2023-02-03T01:37:18.001Z,8.39
2023-02-03T01:39:50.543Z,8.42
2023-02-03T01:42:23.163Z,8.48
2023-02-03T01:44:55.917Z,8.44
2023-02-03T01:47:35.031Z,8.39
2023-02-03T01:50:23.994Z,8.50
2023-02-03T01:53:06.408Z,8.32
2023-02-03T01:55:46.516Z,8.42
2023-02-03T01:58:31.869Z,8.58
2023-02-03T02:01:04.830Z,8.51
2023-02-03T02:03:55.148Z,8.45
2023-02-03T02:06:28.036Z,8.43
2023-02-03T02:09:02.195Z,8.37
2023-02-03T02:11:34.945Z,8.61
2023-02-03T02:14:08.217Z,8.49
2023-02-03T02:17:05.919Z,8.28
2023-02-03T02:20:03.159Z,8.38
2023-02-03T02:23:34.479Z,8.40
2023-02-03T02:26:40.320Z,8.44
2023-02-03T02:29:59.897Z,8.50
2023-02-03T02:33:10.898Z,8.44
2023-02-03T02:35:54.303Z,8.39
2023-02-03T02:38:54.530Z,8.43
2023-02-03T02:41:38.824Z,8.49
2023-02-03T02:44:24.829Z,8.45
2023-02-03T02:47:06.514Z,8.46
2023-02-03T02:49:53.768Z,8.57
2023-02-03T02:52:31.618Z,8.58
2023-02-03T02:55:15.213Z,8.40
2023-02-03T02:57:49.528Z,8.54
2023-02-03T03:00:23.363Z,8.48
2023-02-03T03:02:57.585Z,8.50
2023-02-03T03:05:30.483Z,8.58
2023-02-03T03:08:03.286Z,8.59
2023-02-03T03:10:41.075Z,8.40
2023-02-03T03:13:26.559Z,8.51
2023-02-03T03:16:05.127Z,8.53
2023-02-03T03:18:51.452Z,8.60
2023-02-03T03:21:34.954Z,8.67
2023-02-03T03:24:18.036Z,8.47
2023-02-03T03:27:06.935Z,8.64
2023-02-03T03:29:49.445Z,8.59
2023-02-03T03:32:22.657Z,8.55
2023-02-03T03:34:56.655Z,8.67
2023-02-03T03:37:38.244Z,8.68
2023-02-03T03:40:20.837Z,8.54
2023-02-03T03:43:05.685Z,8.69
2023-02-03T03:46:11.782Z,8.78
2023-02-03T03:48:54.935Z,8.62
2023-02-03T03:51:37.094Z,8.71
2023-02-03T03:54:15.123Z,8.66
2023-02-03T03:57:02.627Z,8.74
2023-02-03T03:59:42.107Z,8.75
2023-02-03T04:02:19.825Z,8.88
2023-02-03T04:04:57.550Z,8.83
2023-02-03T04:07:46.443Z,8.72
2023-02-03T04:10:32.430Z,8.80
2023-02-03T04:13:06.828Z,8.83
2023-02-03T04:15:39.548Z,8.78
2023-02-03T04:18:16.420Z,8.84
2023-02-03T04:20:49.068Z,8.78
2023-02-03T04:23:21.739Z,8.90
2023-02-03T04:25:54.517Z,8.79
2023-02-03T04:28:27.139Z,8.82
2023-02-03T04:31:02.941Z,8.82
2023-02-03T04:33:35.734Z,8.90
2023-02-03T04:36:09.390Z,8.83
2023-02-03T04:38:41.980Z,8.90
2023-02-03T04:41:14.713Z,8.80
2023-02-03T04:43:47.355Z,8.75
2023-02-03T04:46:20.016Z,8.90
2023-02-03T04:48:52.542Z,8.79
2023-02-03T04:51:25.073Z,8.96
2023-02-03T04:53:57.743Z,8.96
2023-02-03T04:56:30.309Z,8.78
2023-02-03T04:59:02.967Z,8.88
2023-02-03T05:01:35.527Z,8.74
2023-02-03T05:04:08.278Z,8.92
2023-02-03T05:06:40.835Z,8.89
2023-02-03T05:09:13.403Z,8.76
2023-02-03T05:11:45.946Z,8.72
2023-02-03T05:14:18.546Z,8.91
2023-02-03T05:16:51.223Z,8.87
2023-02-03T05:19:23.825Z,8.87
2023-02-03T05:21:56.383Z,8.68
2023-02-03T05:24:28.985Z,8.82
2023-02-03T05:27:01.588Z,8.75
2023-02-03T05:29:34.194Z,8.83
2023-02-03T05:32:06.805Z,8.86
2023-02-03T05:34:41.999Z,8.85
2023-02-03T05:37:14.920Z,8.70
2023-02-03T05:39:47.508Z,8.80
2023-02-03T05:42:19.996Z,8.81
2023-02-03T05:44:52.621Z,8.83
2023-02-03T05:47:25.244Z,8.82
2023-02-03T05:49:57.851Z,8.86
2023-02-03T05:52:30.379Z,8.95
2023-02-03T05:55:03.698Z,8.82
2023-02-03T05:57:36.216Z,8.78
2023-02-03T06:00:09.680Z,8.75
2023-02-03T06:02:42.326Z,8.80
2023-02-03T06:05:14.909Z,8.83
2023-02-03T06:07:47.588Z,8.73
2023-02-03T06:10:20.541Z,8.80
2023-02-03T06:12:54.200Z,8.73
2023-02-03T06:15:26.990Z,8.80
2023-02-03T06:17:59.575Z,8.75
2023-02-03T06:20:32.163Z,8.79
2023-02-03T06:23:04.767Z,8.75
2023-02-03T06:25:37.317Z,8.75
2023-02-03T06:28:09.881Z,8.67
2023-02-03T06:30:43.018Z,8.79
2023-02-03T06:33:15.896Z,8.69
2023-02-03T06:35:48.453Z,8.84
2023-02-03T06:38:21.061Z,8.89
2023-02-03T06:40:53.635Z,8.79
2023-02-03T06:43:26.205Z,8.84
2023-02-03T06:45:59.113Z,8.73
2023-02-03T06:48:31.743Z,8.71
2023-02-03T06:51:07.111Z,8.91
2023-02-03T06:53:40.005Z,8.87
2023-02-03T06:56:12.516Z,8.90
2023-02-03T06:58:45.486Z,8.82
2023-02-03T07:01:18.584Z,8.82
2023-02-03T07:03:51.659Z,8.82
2023-02-03T07:06:30.835Z,8.81
2023-02-03T07:09:05.795Z,8.85
2023-02-03T07:11:38.376Z,8.74
2023-02-03T07:14:10.938Z,8.81
2023-02-03T07:16:43.523Z,8.80
2023-02-03T07:19:16.143Z,8.95
2023-02-03T07:21:48.828Z,8.78
2023-02-03T07:24:21.545Z,8.98
2023-02-03T07:26:54.187Z,8.92
2023-02-03T07:29:26.751Z,8.87
2023-02-03T07:31:59.443Z,8.83
2023-02-03T07:34:32.032Z,8.92
2023-02-03T07:37:04.588Z,8.90
2023-02-03T07:39:37.123Z,8.88
2023-02-03T07:42:09.635Z,8.81
2023-02-03T07:44:42.172Z,8.90
2023-02-03T07:47:14.698Z,9.05
2023-02-03T07:49:47.181Z,8.91
2023-02-03T07:52:21.934Z,8.92
2023-02-03T07:54:54.544Z,8.88
2023-02-03T07:57:27.482Z,8.84
2023-02-03T08:00:00.016Z,8.80
2023-02-03T08:02:32.569Z,8.79
2023-02-03T08:05:05.472Z,8.92
2023-02-03T08:07:38.201Z,8.93
2023-02-03T08:10:13.428Z,8.96
2023-02-03T08:12:47.054Z,8.79
2023-02-03T08:15:20.295Z,8.79
2023-02-03T08:17:52.862Z,8.82
2023-02-03T08:20:25.577Z,8.81
2023-02-03T08:22:58.158Z,8.78
2023-02-03T08:25:30.925Z,8.90
2023-02-03T08:28:03.866Z,9.06
2023-02-03T08:30:36.775Z,8.99
2023-02-03T08:33:09.420Z,8.88
2023-02-03T08:35:47.379Z,8.83
2023-02-03T08:38:21.791Z,8.76
2023-02-03T08:40:54.369Z,8.79
2023-02-03T08:43:26.930Z,8.83
2023-02-03T08:46:04.367Z,8.80
2023-02-03T08:48:37.567Z,8.81
2023-02-03T08:51:16.841Z,8.81
2023-02-03T08:53:49.395Z,8.80
2023-02-03T08:56:22.011Z,8.98
2023-02-03T08:58:56.060Z,8.99
2023-02-03T09:01:29.062Z,9.07
2023-02-03T09:04:03.894Z,8.88
2023-02-03T09:06:37.120Z,8.92
2023-02-03T09:09:12.380Z,9.04
2023-02-03T09:11:44.908Z,8.85
2023-02-03T09:14:17.525Z,8.94
2023-02-03T09:16:50.107Z,8.87
2023-02-03T09:19:22.919Z,9.12
2023-02-03T09:21:57.220Z,8.91
2023-02-03T09:24:29.933Z,8.80
2023-02-03T09:27:02.474Z,8.88
2023-02-03T09:29:34.995Z,9.08
2023-02-03T09:32:10.242Z,8.96
2023-02-03T09:34:42.891Z,9.19
2023-02-03T09:37:16.840Z,9.02
2023-02-03T09:39:49.322Z,9.00
2023-02-03T09:42:51.081Z,9.18
2023-02-03T09:45:30.558Z,9.07
2023-02-03T09:48:19.524Z,8.96
2023-02-03T09:50:52.896Z,9.15
2023-02-03T09:53:43.380Z,9.00
2023-02-03T09:56:29.624Z,9.13
2023-02-03T09:59:03.913Z,9.23
2023-02-03T10:02:00.424Z,9.18
2023-02-03T10:04:51.645Z,9.09
2023-02-03T10:07:51.257Z,9.08
2023-02-03T10:11:09.516Z,9.25
2023-02-03T10:14:16.280Z,9.27
2023-02-03T10:20:23.231Z,9.45
2023-02-03T10:23:04.628Z,9.22
2023-02-03T10:25:44.110Z,9.49
2023-02-03T10:28:26.677Z,9.34
2023-02-03T10:31:05.694Z,9.43
2023-02-03T10:33:38.290Z,9.47
2023-02-03T10:36:22.590Z,9.44
2023-02-03T10:39:10.425Z,9.46
2023-02-03T10:41:43.300Z,9.55
2023-02-03T10:44:16.055Z,9.53
2023-02-03T10:46:48.568Z,9.67
2023-02-03T10:49:22.421Z,9.80
2023-02-03T10:52:05.050Z,9.81
2023-02-03T10:54:38.275Z,9.65
2023-02-03T10:57:15.228Z,9.78
2023-02-03T10:59:49.793Z,10.02
2023-02-03T11:02:29.248Z,10.02
2023-02-03T11:05:16.022Z,9.78
2023-02-03T11:07:49.113Z,9.71
2023-02-03T11:10:36.266Z,9.79
2023-02-03T11:13:26.696Z,9.74
2023-02-03T11:16:18.315Z,9.77
2023-02-03T11:19:00.085Z,9.72
2023-02-03T11:21:44.036Z,9.83
2023-02-03T11:24:36.936Z,9.79
2023-02-03T11:27:19.759Z,9.87
2023-02-03T11:30:28.274Z,9.64
2023-02-03T11:33:02.967Z,9.94
2023-02-03T11:35:37.976Z,10.05
2023-02-03T11:38:31.972Z,9.70
2023-02-03T11:41:04.678Z,9.74
2023-02-03T11:43:37.279Z,9.81
2023-02-03T11:46:10.128Z,9.84
2023-02-03T11:48:56.571Z,9.90
2023-02-03T11:52:06.258Z,9.86
2023-02-03T11:55:05.205Z,9.81
2023-02-03T11:58:04.699Z,9.79
2023-02-03T12:01:07.372Z,9.80
2023-02-03T12:04:21.099Z,10.16
2023-02-03T12:07:44.915Z,10.20
2023-02-03T12:10:31.587Z,9.93
2023-02-03T12:13:24.828Z,10.30
2023-02-03T12:16:46.228Z,9.92
2023-02-03T12:19:24.323Z,10.23
2023-02-03T12:22:04.995Z,10.06
2023-02-03T12:24:59.590Z,10.21
2023-02-03T12:27:46.522Z,10.09
2023-02-03T12:30:29.668Z,10.18
2023-02-03T12:33:33.174Z,10.18
2023-02-03T12:36:14.189Z,10.21
2023-02-03T12:39:13.520Z,10.18
2023-02-03T12:42:11.772Z,10.03
2023-02-03T12:45:09.276Z,10.23
2023-02-03T12:47:55.272Z,10.13
2023-02-03T12:51:00.959Z,9.99
2023-02-03T12:53:42.345Z,9.88
2023-02-03T12:56:40.726Z,9.93
2023-02-03T12:59:25.395Z,10.13
2023-02-03T13:02:23.826Z,10.05
2023-02-03T13:05:23.476Z,9.95
2023-02-03T13:08:18.829Z,10.20
2023-02-03T13:11:15.437Z,10.10
2023-02-03T13:14:15.412Z,10.19
2023-02-03T13:17:00.671Z,10.07
2023-02-03T13:19:46.410Z,10.04
2023-02-03T13:22:23.917Z,10.54
2023-02-03T13:25:17.708Z,10.32
2023-02-03T13:28:31.095Z,10.27
2023-02-03T13:35:33.831Z,10.44
2023-02-03T13:38:22.175Z,10.20
2023-02-03T13:41:15.915Z,10.38
2023-02-03T13:43:52.777Z,10.41
2023-02-03T13:46:34.988Z,10.48
2023-02-03T13:49:09.471Z,10.35
2023-02-03T13:51:46.711Z,10.51
2023-02-03T13:54:36.107Z,10.60
2023-02-03T13:57:39.015Z,10.42
2023-02-03T14:00:43.823Z,10.39
2023-02-03T14:03:27.025Z,10.10
2023-02-03T14:06:01.624Z,10.18
2023-02-03T14:08:34.221Z,10.22
2023-02-03T14:11:34.742Z,10.25
2023-02-03T14:14:07.207Z,10.03
2023-02-03T14:16:41.835Z,10.02
2023-02-03T14:19:29.546Z,10.07
2023-02-03T14:22:16.453Z,10.13
2023-02-03T14:24:50.363Z,10.30
2023-02-03T14:27:29.903Z,10.17
2023-02-03T14:30:09.159Z,10.08
2023-02-03T14:33:01.192Z,10.13
2023-02-03T14:35:40.101Z,10.24
2023-02-03T14:38:15.830Z,10.05
2023-02-03T14:41:02.720Z,10.04
2023-02-03T14:43:40.016Z,9.89
2023-02-03T14:47:02.442Z,10.08
2023-02-03T14:50:14.121Z,10.03
2023-02-03T14:53:27.605Z,9.87
2023-02-03T14:56:57.628Z,9.69
2023-02-03T14:59:43.405Z,9.65
2023-02-03T15:02:27.531Z,9.53
2023-02-03T15:05:12.322Z,9.47
2023-02-03T15:07:51.127Z,9.22
2023-02-03T15:10:44.124Z,9.23
2023-02-03T15:13:32.579Z,9.23
2023-02-03T15:16:10.904Z,9.28
2023-02-03T15:18:44.098Z,9.27
2023-02-03T15:21:20.147Z,9.22
2023-02-03T15:23:54.098Z,9.33
2023-02-03T15:26:27.535Z,9.23
2023-02-03T15:29:04.000Z,9.32
2023-02-03T15:31:49.713Z,9.53
2023-02-03T15:34:29.582Z,9.34
2023-02-03T15:37:19.733Z,9.27
2023-02-03T15:40:06.732Z,9.41
2023-02-03T15:43:00.901Z,9.25
2023-02-03T15:45:41.840Z,9.25
2023-02-03T15:48:51.836Z,9.34
2023-02-03T15:51:34.715Z,9.21
2023-02-03T15:54:41.262Z,9.14
2023-02-03T15:57:21.848Z,8.95
2023-02-03T15:59:59.988Z,8.78
2023-02-03T16:02:45.829Z,8.80
2023-02-03T16:05:26.679Z,8.72
2023-02-03T16:08:39.740Z,8.60
2023-02-03T16:11:31.799Z,8.57
2023-02-03T16:14:11.647Z,8.69
2023-02-03T16:17:05.027Z,8.54
2023-02-03T16:19:41.203Z,8.54
2023-02-03T16:22:59.423Z,8.54
2023-02-03T16:25:34.269Z,8.45
2023-02-03T16:28:31.761Z,8.38
2023-02-03T16:32:04.548Z,8.50
2023-02-03T16:34:56.321Z,8.47
2023-02-03T16:38:03.112Z,8.26
2023-02-03T16:40:54.268Z,8.34
2023-02-03T16:43:45.811Z,8.54
2023-02-03T16:46:36.907Z,8.48
2023-02-03T16:49:28.000Z,8.37
2023-02-03T16:52:01.671Z,8.36
2023-02-03T16:54:34.554Z,8.58
2023-02-03T16:57:07.533Z,8.58
2023-02-03T16:59:40.258Z,8.68
2023-02-03T17:02:13.388Z,8.65
2023-02-03T17:04:46.889Z,8.80
2023-02-03T17:07:20.117Z,8.73
2023-02-03T17:09:53.358Z,8.99
2023-02-03T17:12:30.777Z,8.89
2023-02-03T17:15:05.589Z,8.75
2023-02-03T17:17:38.634Z,8.99
2023-02-03T17:20:11.731Z,8.96
2023-02-03T17:22:45.200Z,8.94
2023-02-03T17:25:22.524Z,8.80
2023-02-03T17:27:55.660Z,8.79
2023-02-03T17:30:29.184Z,8.82
2023-02-03T17:33:11.909Z,8.89
2023-02-03T17:35:45.624Z,8.99
2023-02-03T17:38:18.450Z,9.05
2023-02-03T17:55:03.309Z,8.93
2023-02-03T17:57:40.356Z,8.91
2023-02-03T18:00:13.577Z,8.99
2023-02-03T18:02:51.312Z,8.97
2023-02-03T18:05:23.926Z,9.04
2023-02-03T18:07:56.930Z,9.02
2023-02-03T18:10:30.101Z,8.91
2023-02-03T18:13:03.129Z,9.08
2023-02-03T18:15:37.921Z,8.93
2023-02-03T18:18:10.591Z,8.97
2023-02-03T18:20:43.376Z,8.91
2023-02-03T18:23:16.074Z,8.97
2023-02-03T18:25:53.754Z,9.12
2023-02-03T18:28:27.282Z,8.93
2023-02-03T18:31:07.818Z,9.04
2023-02-03T18:33:41.847Z,8.88
2023-02-03T18:36:16.923Z,8.79
2023-02-03T18:38:52.287Z,8.99
2023-02-03T18:41:25.910Z,8.88
2023-02-03T18:43:58.596Z,8.98
2023-02-03T18:46:33.592Z,8.83
2023-02-03T18:49:09.363Z,8.83
2023-02-03T18:51:44.181Z,8.91
2023-02-03T18:54:17.029Z,8.95
2023-02-03T18:56:50.011Z,8.89
2023-02-03T18:59:25.798Z,8.83
2023-02-03T19:01:58.532Z,8.90
2023-02-03T19:04:31.490Z,8.73
2023-02-03T19:07:04.678Z,9.00
2023-02-03T19:09:38.234Z,8.86
2023-02-03T19:12:11.769Z,8.99
2023-02-03T19:14:44.450Z,8.75
2023-02-03T19:17:17.516Z,8.87
2023-02-03T19:19:50.358Z,8.89
2023-02-03T19:22:23.450Z,8.81
2023-02-03T19:24:56.937Z,8.81
2023-02-03T19:27:30.078Z,8.90
2023-02-03T19:30:07.416Z,8.92
2023-02-03T19:32:40.234Z,8.94
2023-02-03T19:35:15.596Z,8.87
2023-02-03T19:37:50.971Z,8.62
2023-02-03T19:40:23.699Z,8.74
2023-02-03T19:43:00.630Z,8.77
2023-02-03T19:45:34.169Z,8.88
2023-02-03T19:48:07.707Z,8.67
2023-02-03T19:50:45.759Z,8.63
2023-02-03T19:53:18.953Z,8.75
2023-02-03T19:55:57.859Z,8.66
2023-02-03T19:58:30.908Z,8.39
2023-02-03T20:01:03.920Z,8.37
2023-02-03T20:03:37.126Z,8.18
2023-02-03T20:06:10.899Z,8.39
2023-02-03T20:08:46.725Z,8.26
2023-02-03T20:11:20.406Z,8.16
2023-02-03T20:13:53.738Z,8.18
2023-02-03T20:16:26.731Z,8.08
2023-02-03T20:19:01.196Z,8.23
2023-02-03T20:21:34.338Z,8.07
2023-02-03T20:24:07.334Z,8.03
2023-02-03T20:26:40.905Z,8.14
2023-02-03T20:29:13.906Z,8.36
2023-02-03T20:31:46.937Z,8.20
2023-02-03T20:34:20.127Z,8.24
2023-02-03T20:36:55.977Z,8.23
2023-02-03T20:39:29.064Z,8.20
2023-02-03T20:42:02.144Z,8.14
2023-02-03T20:44:34.864Z,8.00
2023-02-03T20:47:22.518Z,8.01
2023-02-03T20:49:55.857Z,8.01
2023-02-03T20:52:28.577Z,8.07
2023-02-03T20:55:01.218Z,8.06
2023-02-03T20:57:33.905Z,7.90
2023-02-03T21:00:18.023Z,8.13
2023-02-03T21:03:09.522Z,7.85
2023-02-03T21:05:45.424Z,7.75
2023-02-03T21:08:20.618Z,7.99
2023-02-03T21:10:55.178Z,7.83
2023-02-03T21:13:33.718Z,7.60
2023-02-03T21:16:20.943Z,7.44
2023-02-03T21:18:55.587Z,7.57
2023-02-03T21:21:39.474Z,7.54
2023-02-03T21:24:35.508Z,7.60
2023-02-03T21:27:25.771Z,7.54
2023-02-03T21:30:02.059Z,7.60
2023-02-03T21:32:40.589Z,7.59
2023-02-03T21:35:25.714Z,7.56
2023-02-03T21:38:04.516Z,7.69
2023-02-03T21:40:37.052Z,7.52
2023-02-03T21:43:18.180Z,7.38
2023-02-03T21:45:51.363Z,7.33
2023-02-03T21:48:33.894Z,7.16
2023-02-03T21:51:20.779Z,7.29
2023-02-03T21:54:00.487Z,7.20
2023-02-03T21:56:41.394Z,7.26
2023-02-03T21:59:29.618Z,7.11
2023-02-03T22:02:03.477Z,7.18
2023-02-03T22:04:36.060Z,7.17
2023-02-03T22:07:15.474Z,7.12
2023-02-03T22:09:50.199Z,7.09
2023-02-03T22:12:22.776Z,7.12
2023-02-03T22:14:55.435Z,6.90
2023-02-03T22:17:28.237Z,6.96
2023-02-03T22:20:01.333Z,6.84
2023-02-03T22:22:34.715Z,6.79
2023-02-03T22:25:10.467Z,6.80
2023-02-03T22:27:42.987Z,6.70
2023-02-03T22:30:18.905Z,6.56
2023-02-03T22:32:51.429Z,6.54
2023-02-03T22:35:25.005Z,6.39
2023-02-03T22:37:58.370Z,6.47
2023-02-03T22:40:31.407Z,6.57
2023-02-03T22:43:04.421Z,6.68
2023-02-03T22:45:37.151Z,6.54
2023-02-03T22:48:09.908Z,6.45
2023-02-03T22:50:42.662Z,6.37
2023-02-03T22:53:15.315Z,6.49
2023-02-03T22:55:47.996Z,6.28
2023-02-03T22:58:20.609Z,6.48
2023-02-03T23:00:53.124Z,6.43
2023-02-03T23:03:25.748Z,6.20
2023-02-03T23:05:58.890Z,6.24
2023-02-03T23:08:31.801Z,6.29
2023-02-03T23:11:04.576Z,6.26
2023-02-03T23:13:37.239Z,6.22
2023-02-03T23:16:09.920Z,6.37
2023-02-03T23:18:42.829Z,6.32
2023-02-03T23:21:15.341Z,6.24
2023-02-03T23:23:47.969Z,6.38
2023-02-03T23:26:20.568Z,6.52
2023-02-03T23:28:53.224Z,6.24
2023-02-03T23:31:26.002Z,6.39
2023-02-03T23:34:17.457Z,6.60
2023-02-03T23:36:50.128Z,6.29
2023-02-03T23:39:22.788Z,6.42
2023-02-03T23:41:58.402Z,6.58
2023-02-03T23:44:31.004Z,6.52
2023-02-03T23:47:03.614Z,6.61
2023-02-03T23:49:36.321Z,6.45
2023-02-03T23:52:08.999Z,6.64
2023-02-03T23:54:41.682Z,6.62
2023-02-03T23:57:14.208Z,6.33
2023-02-03T23:59:46.932Z,6.44
